sensor_id;sensor_type;location;lat;lon;timestamp;P1;durP1;ratioP1;P2;durP2;ratioP2
68812;SDS011;55808;48.112;11.552;2022-10-31T00:01:16;36.40;;;32.67;;
68812;SDS011;55808;48.112;11.552;2022-10-31T00:03:44;33.33;;;30.40;;
68812;SDS011;55808;48.112;11.552;2022-10-31T00:06:10;35.57;;;31.87;;
68812;SDS011;55808;48.112;11.552;2022-10-31T00:08:36;46.47;;;30.83;;
68812;SDS011;55808;48.112;11.552;2022-10-31T00:11:02;34.67;;;31.60;;
68812;SDS011;55808;48.112;11.552;2022-10-31T00:13:28;34.80;;;31.20;;
68812;SDS011;55808;48.112;11.552;2022-10-31T00:15:53;34.93;;;30.83;;
68812;SDS011;55808;48.112;11.552;2022-10-31T00:18:19;34.70;;;30.97;;
68812;SDS011;55808;48.112;11.552;2022-10-31T00:20:45;33.73;;;30.70;;
68812;SDS011;55808;48.112;11.552;2022-10-31T00:23:10;35.77;;;32.27;;
68812;SDS011;55808;48.112;11.552;2022-10-31T00:25:37;35.60;;;31.17;;
68812;SDS011;55808;48.112;11.552;2022-10-31T00:28:05;30.70;;;28.43;;
68812;SDS011;55808;48.112;11.552;2022-10-31T00:30:32;33.77;;;30.77;;
68812;SDS011;55808;48.112;11.552;2022-10-31T00:32:58;32.73;;;29.57;;
68812;SDS011;55808;48.112;11.552;2022-10-31T00:35:24;33.67;;;30.27;;
68812;SDS011;55808;48.112;11.552;2022-10-31T00:37:50;39.97;;;32.30;;
68812;SDS011;55808;48.112;11.552;2022-10-31T00:40:16;33.47;;;30.10;;
68812;SDS011;55808;48.112;11.552;2022-10-31T00:42:42;33.03;;;30.37;;
68812;SDS011;55808;48.112;11.552;2022-10-31T00:45:09;38.53;;;32.50;;
68812;SDS011;55808;48.112;11.552;2022-10-31T00:47:35;31.40;;;29.23;;
68812;SDS011;55808;48.112;11.552;2022-10-31T00:50:00;32.30;;;29.80;;
68812;SDS011;55808;48.112;11.552;2022-10-31T00:52:27;34.03;;;31.10;;
68812;SDS011;55808;48.112;11.552;2022-10-31T00:54:52;46.10;;;33.30;;
68812;SDS011;55808;48.112;11.552;2022-10-31T00:57:18;32.97;;;29.47;;
68812;SDS011;55808;48.112;11.552;2022-10-31T00:59:43;34.40;;;31.10;;
68812;SDS011;55808;48.112;11.552;2022-10-31T01:02:10;33.17;;;30.03;;
68812;SDS011;55808;48.112;11.552;2022-10-31T01:04:36;33.73;;;30.30;;
68812;SDS011;55808;48.112;11.552;2022-10-31T01:07:01;32.83;;;29.73;;
68812;SDS011;55808;48.112;11.552;2022-10-31T01:09:27;33.03;;;30.23;;
68812;SDS011;55808;48.112;11.552;2022-10-31T01:11:52;35.37;;;31.77;;
68812;SDS011;55808;48.112;11.552;2022-10-31T01:14:18;34.07;;;30.63;;
68812;SDS011;55808;48.112;11.552;2022-10-31T01:16:44;33.73;;;30.70;;
68812;SDS011;55808;48.112;11.552;2022-10-31T01:19:09;43.47;;;31.57;;
68812;SDS011;55808;48.112;11.552;2022-10-31T01:21:35;32.27;;;29.87;;
68812;SDS011;55808;48.112;11.552;2022-10-31T01:24:00;33.80;;;30.33;;
68812;SDS011;55808;48.112;11.552;2022-10-31T01:26:30;33.77;;;30.53;;
68812;SDS011;55808;48.112;11.552;2022-10-31T01:28:58;32.57;;;30.10;;
68812;SDS011;55808;48.112;11.552;2022-10-31T01:31:25;32.73;;;29.90;;
68812;SDS011;55808;48.112;11.552;2022-10-31T01:33:53;33.23;;;30.27;;
68812;SDS011;55808;48.112;11.552;2022-10-31T01:36:23;33.83;;;30.83;;
68812;SDS011;55808;48.112;11.552;2022-10-31T01:38:53;30.83;;;28.70;;
68812;SDS011;55808;48.112;11.552;2022-10-31T01:41:24;31.20;;;28.87;;
68812;SDS011;55808;48.112;11.552;2022-10-31T01:43:59;34.27;;;31.00;;
68812;SDS011;55808;48.112;11.552;2022-10-31T01:46:31;31.53;;;29.27;;
68812;SDS011;55808;48.112;11.552;2022-10-31T01:49:04;32.50;;;29.57;;
68812;SDS011;55808;48.112;11.552;2022-10-31T01:51:35;32.07;;;29.70;;
68812;SDS011;55808;48.112;11.552;2022-10-31T01:54:06;36.60;;;30.93;;
68812;SDS011;55808;48.112;11.552;2022-10-31T01:56:35;31.20;;;28.97;;
68812;SDS011;55808;48.112;11.552;2022-10-31T01:59:06;31.43;;;28.87;;
68812;SDS011;55808;48.112;11.552;2022-10-31T02:01:35;30.27;;;28.07;;
68812;SDS011;55808;48.112;11.552;2022-10-31T02:04:02;31.43;;;28.93;;
68812;SDS011;55808;48.112;11.552;2022-10-31T02:06:38;31.23;;;28.63;;
68812;SDS011;55808;48.112;11.552;2022-10-31T02:09:12;31.93;;;29.20;;
68812;SDS011;55808;48.112;11.552;2022-10-31T02:11:40;29.27;;;27.10;;
68812;SDS011;55808;48.112;11.552;2022-10-31T02:14:07;38.90;;;31.17;;
68812;SDS011;55808;48.112;11.552;2022-10-31T02:16:32;30.27;;;28.10;;
68812;SDS011;55808;48.112;11.552;2022-10-31T02:18:58;31.90;;;29.90;;
68812;SDS011;55808;48.112;11.552;2022-10-31T02:29:36;31.47;;;28.97;;
68812;SDS011;55808;48.112;11.552;2022-10-31T02:43:18;30.93;;;27.97;;
68812;SDS011;55808;48.112;11.552;2022-10-31T02:45:55;31.97;;;29.47;;
68812;SDS011;55808;48.112;11.552;2022-10-31T02:48:27;31.53;;;28.87;;
68812;SDS011;55808;48.112;11.552;2022-10-31T02:50:55;30.70;;;28.10;;
68812;SDS011;55808;48.112;11.552;2022-10-31T02:53:24;29.77;;;27.70;;
68812;SDS011;55808;48.112;11.552;2022-10-31T02:55:51;30.93;;;28.73;;
68812;SDS011;55808;48.112;11.552;2022-10-31T02:58:25;29.40;;;26.97;;
68812;SDS011;55808;48.112;11.552;2022-10-31T03:03:36;29.07;;;26.60;;
68812;SDS011;55808;48.112;11.552;2022-10-31T03:06:14;30.70;;;28.17;;
68812;SDS011;55808;48.112;11.552;2022-10-31T03:08:50;30.10;;;27.77;;
68812;SDS011;55808;48.112;11.552;2022-10-31T03:11:43;30.17;;;27.57;;
68812;SDS011;55808;48.112;11.552;2022-10-31T03:14:28;32.87;;;29.57;;
68812;SDS011;55808;48.112;11.552;2022-10-31T03:16:56;31.67;;;28.70;;
68812;SDS011;55808;48.112;11.552;2022-10-31T03:19:29;30.00;;;27.80;;
68812;SDS011;55808;48.112;11.552;2022-10-31T03:21:59;33.67;;;29.93;;
68812;SDS011;55808;48.112;11.552;2022-10-31T03:24:30;33.00;;;29.70;;
68812;SDS011;55808;48.112;11.552;2022-10-31T03:26:59;31.60;;;29.07;;
68812;SDS011;55808;48.112;11.552;2022-10-31T03:29:27;30.00;;;27.70;;
68812;SDS011;55808;48.112;11.552;2022-10-31T03:31:57;30.13;;;27.93;;
68812;SDS011;55808;48.112;11.552;2022-10-31T03:34:44;32.97;;;29.47;;
68812;SDS011;55808;48.112;11.552;2022-10-31T03:37:11;30.80;;;27.70;;
68812;SDS011;55808;48.112;11.552;2022-10-31T03:39:42;36.73;;;29.40;;
68812;SDS011;55808;48.112;11.552;2022-10-31T03:42:11;42.87;;;31.23;;
68812;SDS011;55808;48.112;11.552;2022-10-31T03:45:06;33.53;;;29.67;;
68812;SDS011;55808;48.112;11.552;2022-10-31T03:47:33;31.20;;;28.40;;
68812;SDS011;55808;48.112;11.552;2022-10-31T03:50:04;45.07;;;30.63;;
68812;SDS011;55808;48.112;11.552;2022-10-31T03:52:35;29.77;;;27.47;;
68812;SDS011;55808;48.112;11.552;2022-10-31T03:55:10;33.07;;;28.83;;
68812;SDS011;55808;48.112;11.552;2022-10-31T03:57:43;32.33;;;29.20;;
68812;SDS011;55808;48.112;11.552;2022-10-31T04:00:31;34.43;;;29.90;;
68812;SDS011;55808;48.112;11.552;2022-10-31T04:03:14;30.47;;;28.17;;
68812;SDS011;55808;48.112;11.552;2022-10-31T04:05:44;28.77;;;26.33;;
68812;SDS011;55808;48.112;11.552;2022-10-31T04:08:15;30.20;;;27.17;;
68812;SDS011;55808;48.112;11.552;2022-10-31T04:10:43;30.37;;;28.07;;
68812;SDS011;55808;48.112;11.552;2022-10-31T04:13:14;29.70;;;27.43;;
68812;SDS011;55808;48.112;11.552;2022-10-31T04:15:42;31.40;;;28.03;;
68812;SDS011;55808;48.112;11.552;2022-10-31T04:18:09;29.73;;;27.37;;
68812;SDS011;55808;48.112;11.552;2022-10-31T04:20:36;28.70;;;26.27;;
68812;SDS011;55808;48.112;11.552;2022-10-31T04:23:03;30.67;;;27.63;;
68812;SDS011;55808;48.112;11.552;2022-10-31T04:25:39;45.63;;;27.70;;
68812;SDS011;55808;48.112;11.552;2022-10-31T04:28:04;29.87;;;27.60;;
68812;SDS011;55808;48.112;11.552;2022-10-31T04:30:30;29.37;;;27.00;;
68812;SDS011;55808;48.112;11.552;2022-10-31T04:32:55;29.13;;;27.13;;
68812;SDS011;55808;48.112;11.552;2022-10-31T04:35:21;28.77;;;26.70;;
68812;SDS011;55808;48.112;11.552;2022-10-31T04:37:47;33.67;;;25.70;;
68812;SDS011;55808;48.112;11.552;2022-10-31T04:40:13;28.33;;;26.37;;
68812;SDS011;55808;48.112;11.552;2022-10-31T04:42:38;30.30;;;27.17;;
68812;SDS011;55808;48.112;11.552;2022-10-31T04:45:04;28.23;;;26.50;;
68812;SDS011;55808;48.112;11.552;2022-10-31T04:47:33;29.53;;;27.47;;
68812;SDS011;55808;48.112;11.552;2022-10-31T04:50:00;28.80;;;26.40;;
68812;SDS011;55808;48.112;11.552;2022-10-31T04:52:26;30.60;;;28.57;;
68812;SDS011;55808;48.112;11.552;2022-10-31T04:54:51;26.77;;;24.97;;
68812;SDS011;55808;48.112;11.552;2022-10-31T04:57:17;29.43;;;27.07;;
68812;SDS011;55808;48.112;11.552;2022-10-31T04:59:42;28.90;;;26.43;;
68812;SDS011;55808;48.112;11.552;2022-10-31T05:02:08;28.77;;;27.00;;
68812;SDS011;55808;48.112;11.552;2022-10-31T05:04:34;29.03;;;27.37;;
68812;SDS011;55808;48.112;11.552;2022-10-31T05:06:59;27.13;;;25.13;;
68812;SDS011;55808;48.112;11.552;2022-10-31T05:09:25;28.93;;;26.30;;
68812;SDS011;55808;48.112;11.552;2022-10-31T05:11:50;27.00;;;24.90;;
68812;SDS011;55808;48.112;11.552;2022-10-31T05:14:16;33.00;;;27.30;;
68812;SDS011;55808;48.112;11.552;2022-10-31T05:16:41;27.93;;;26.17;;
68812;SDS011;55808;48.112;11.552;2022-10-31T05:19:07;27.20;;;25.50;;
68812;SDS011;55808;48.112;11.552;2022-10-31T05:21:33;29.17;;;26.47;;
68812;SDS011;55808;48.112;11.552;2022-10-31T05:23:58;27.70;;;25.93;;
68812;SDS011;55808;48.112;11.552;2022-10-31T05:26:24;27.53;;;24.97;;
68812;SDS011;55808;48.112;11.552;2022-10-31T05:28:49;28.77;;;26.97;;
68812;SDS011;55808;48.112;11.552;2022-10-31T05:31:15;29.07;;;26.50;;
68812;SDS011;55808;48.112;11.552;2022-10-31T05:33:41;27.20;;;25.43;;
68812;SDS011;55808;48.112;11.552;2022-10-31T05:36:06;29.53;;;27.37;;
68812;SDS011;55808;48.112;11.552;2022-10-31T05:38:32;29.53;;;27.13;;
68812;SDS011;55808;48.112;11.552;2022-10-31T05:40:58;27.70;;;26.00;;
68812;SDS011;55808;48.112;11.552;2022-10-31T05:43:25;25.10;;;23.80;;
68812;SDS011;55808;48.112;11.552;2022-10-31T05:45:52;27.07;;;25.40;;
68812;SDS011;55808;48.112;11.552;2022-10-31T05:48:18;27.57;;;25.37;;
68812;SDS011;55808;48.112;11.552;2022-10-31T05:50:44;27.30;;;25.33;;
68812;SDS011;55808;48.112;11.552;2022-10-31T05:53:10;26.57;;;24.33;;
68812;SDS011;55808;48.112;11.552;2022-10-31T05:55:35;25.87;;;24.47;;
68812;SDS011;55808;48.112;11.552;2022-10-31T05:58:01;27.27;;;25.17;;
68812;SDS011;55808;48.112;11.552;2022-10-31T06:00:27;29.77;;;26.63;;
68812;SDS011;55808;48.112;11.552;2022-10-31T06:02:59;25.63;;;24.07;;
68812;SDS011;55808;48.112;11.552;2022-10-31T06:05:26;28.03;;;25.60;;
68812;SDS011;55808;48.112;11.552;2022-10-31T06:07:52;27.20;;;25.47;;
68812;SDS011;55808;48.112;11.552;2022-10-31T06:10:18;26.97;;;25.40;;
68812;SDS011;55808;48.112;11.552;2022-10-31T06:12:46;28.07;;;25.60;;
68812;SDS011;55808;48.112;11.552;2022-10-31T06:15:12;39.40;;;27.70;;
68812;SDS011;55808;48.112;11.552;2022-10-31T06:17:37;25.70;;;24.00;;
68812;SDS011;55808;48.112;11.552;2022-10-31T06:20:03;27.50;;;25.43;;
68812;SDS011;55808;48.112;11.552;2022-10-31T06:22:29;26.63;;;24.70;;
68812;SDS011;55808;48.112;11.552;2022-10-31T06:24:55;26.23;;;24.20;;
68812;SDS011;55808;48.112;11.552;2022-10-31T06:27:20;26.37;;;24.97;;
68812;SDS011;55808;48.112;11.552;2022-10-31T06:29:46;27.03;;;25.40;;
68812;SDS011;55808;48.112;11.552;2022-10-31T06:32:12;29.07;;;26.57;;
68812;SDS011;55808;48.112;11.552;2022-10-31T06:34:38;25.67;;;23.55;;
68812;SDS011;55808;48.112;11.552;2022-10-31T06:37:08;24.87;;;23.13;;
68812;SDS011;55808;48.112;11.552;2022-10-31T06:39:36;28.17;;;25.47;;
68812;SDS011;55808;48.112;11.552;2022-10-31T06:42:02;25.63;;;24.07;;
68812;SDS011;55808;48.112;11.552;2022-10-31T06:44:28;31.07;;;26.20;;
68812;SDS011;55808;48.112;11.552;2022-10-31T06:46:53;26.93;;;24.90;;
68812;SDS011;55808;48.112;11.552;2022-10-31T06:49:19;28.57;;;26.30;;
68812;SDS011;55808;48.112;11.552;2022-10-31T06:51:48;29.20;;;27.30;;
68812;SDS011;55808;48.112;11.552;2022-10-31T06:54:15;29.27;;;26.73;;
68812;SDS011;55808;48.112;11.552;2022-10-31T06:56:41;30.03;;;27.30;;
68812;SDS011;55808;48.112;11.552;2022-10-31T06:59:07;39.33;;;29.40;;
68812;SDS011;55808;48.112;11.552;2022-10-31T07:01:32;30.97;;;27.97;;
68812;SDS011;55808;48.112;11.552;2022-10-31T07:03:58;40.67;;;30.63;;
68812;SDS011;55808;48.112;11.552;2022-10-31T07:06:23;30.87;;;28.47;;
68812;SDS011;55808;48.112;11.552;2022-10-31T07:08:49;30.70;;;27.80;;
68812;SDS011;55808;48.112;11.552;2022-10-31T07:11:15;38.50;;;28.97;;
68812;SDS011;55808;48.112;11.552;2022-10-31T07:13:40;30.87;;;27.97;;
68812;SDS011;55808;48.112;11.552;2022-10-31T07:16:06;31.87;;;28.97;;
68812;SDS011;55808;48.112;11.552;2022-10-31T07:18:32;36.33;;;27.40;;
68812;SDS011;55808;48.112;11.552;2022-10-31T07:20:59;28.70;;;26.57;;
68812;SDS011;55808;48.112;11.552;2022-10-31T07:23:24;30.50;;;27.80;;
68812;SDS011;55808;48.112;11.552;2022-10-31T07:25:56;31.40;;;28.47;;
68812;SDS011;55808;48.112;11.552;2022-10-31T07:28:23;31.00;;;28.50;;
68812;SDS011;55808;48.112;11.552;2022-10-31T07:30:53;30.00;;;27.67;;
68812;SDS011;55808;48.112;11.552;2022-10-31T07:33:21;32.20;;;29.10;;
68812;SDS011;55808;48.112;11.552;2022-10-31T07:35:47;32.07;;;29.17;;
68812;SDS011;55808;48.112;11.552;2022-10-31T07:38:14;29.83;;;27.57;;
68812;SDS011;55808;48.112;11.552;2022-10-31T07:40:40;31.37;;;28.63;;
68812;SDS011;55808;48.112;11.552;2022-10-31T07:43:07;30.53;;;28.13;;
68812;SDS011;55808;48.112;11.552;2022-10-31T07:45:33;33.17;;;29.77;;
68812;SDS011;55808;48.112;11.552;2022-10-31T07:47:58;30.07;;;27.47;;
68812;SDS011;55808;48.112;11.552;2022-10-31T07:50:28;31.17;;;28.70;;
68812;SDS011;55808;48.112;11.552;2022-10-31T07:53:01;30.20;;;27.80;;
68812;SDS011;55808;48.112;11.552;2022-10-31T07:55:32;30.17;;;27.97;;
68812;SDS011;55808;48.112;11.552;2022-10-31T07:58:04;32.40;;;29.40;;
68812;SDS011;55808;48.112;11.552;2022-10-31T08:00:35;31.97;;;28.97;;
68812;SDS011;55808;48.112;11.552;2022-10-31T08:03:13;29.73;;;26.90;;
68812;SDS011;55808;48.112;11.552;2022-10-31T08:05:45;33.50;;;30.27;;
68812;SDS011;55808;48.112;11.552;2022-10-31T08:08:14;30.30;;;28.20;;
68812;SDS011;55808;48.112;11.552;2022-10-31T08:10:40;32.70;;;29.80;;
68812;SDS011;55808;48.112;11.552;2022-10-31T08:13:07;32.10;;;29.30;;
68812;SDS011;55808;48.112;11.552;2022-10-31T08:15:34;29.47;;;27.37;;
68812;SDS011;55808;48.112;11.552;2022-10-31T08:18:03;32.43;;;30.23;;
68812;SDS011;55808;48.112;11.552;2022-10-31T08:20:29;35.60;;;30.63;;
68812;SDS011;55808;48.112;11.552;2022-10-31T08:22:55;30.97;;;28.67;;
68812;SDS011;55808;48.112;11.552;2022-10-31T08:25:22;36.87;;;31.10;;
68812;SDS011;55808;48.112;11.552;2022-10-31T08:27:52;31.20;;;29.07;;
68812;SDS011;55808;48.112;11.552;2022-10-31T08:30:22;31.13;;;28.67;;
68812;SDS011;55808;48.112;11.552;2022-10-31T08:33:03;31.00;;;29.10;;
68812;SDS011;55808;48.112;11.552;2022-10-31T08:35:31;33.07;;;30.97;;
68812;SDS011;55808;48.112;11.552;2022-10-31T08:37:57;36.00;;;32.37;;
68812;SDS011;55808;48.112;11.552;2022-10-31T08:40:24;37.20;;;33.97;;
68812;SDS011;55808;48.112;11.552;2022-10-31T08:42:57;33.93;;;31.47;;
68812;SDS011;55808;48.112;11.552;2022-10-31T08:45:31;37.70;;;34.47;;
68812;SDS011;55808;48.112;11.552;2022-10-31T08:47:58;33.87;;;31.17;;
68812;SDS011;55808;48.112;11.552;2022-10-31T08:50:26;36.07;;;33.17;;
68812;SDS011;55808;48.112;11.552;2022-10-31T08:52:53;36.10;;;32.90;;
68812;SDS011;55808;48.112;11.552;2022-10-31T08:55:24;45.53;;;36.27;;
68812;SDS011;55808;48.112;11.552;2022-10-31T08:57:54;36.83;;;34.30;;
68812;SDS011;55808;48.112;11.552;2022-10-31T09:00:23;36.20;;;32.93;;
68812;SDS011;55808;48.112;11.552;2022-10-31T09:02:58;38.73;;;35.27;;
68812;SDS011;55808;48.112;11.552;2022-10-31T09:05:25;45.17;;;36.77;;
68812;SDS011;55808;48.112;11.552;2022-10-31T09:07:54;35.77;;;33.47;;
68812;SDS011;55808;48.112;11.552;2022-10-31T09:10:21;38.53;;;35.00;;
68812;SDS011;55808;48.112;11.552;2022-10-31T09:12:47;38.40;;;35.63;;
68812;SDS011;55808;48.112;11.552;2022-10-31T09:15:19;59.27;;;39.33;;
68812;SDS011;55808;48.112;11.552;2022-10-31T09:17:48;44.90;;;36.83;;
68812;SDS011;55808;48.112;11.552;2022-10-31T09:20:13;41.17;;;37.97;;
68812;SDS011;55808;48.112;11.552;2022-10-31T09:22:39;39.90;;;36.73;;
68812;SDS011;55808;48.112;11.552;2022-10-31T09:25:05;40.20;;;36.73;;
68812;SDS011;55808;48.112;11.552;2022-10-31T09:27:30;41.70;;;37.60;;
68812;SDS011;55808;48.112;11.552;2022-10-31T09:29:56;40.23;;;37.00;;
68812;SDS011;55808;48.112;11.552;2022-10-31T09:32:22;41.60;;;37.93;;
68812;SDS011;55808;48.112;11.552;2022-10-31T09:34:47;38.40;;;35.70;;
68812;SDS011;55808;48.112;11.552;2022-10-31T09:37:13;41.97;;;38.10;;
68812;SDS011;55808;48.112;11.552;2022-10-31T09:39:38;41.20;;;37.80;;
68812;SDS011;55808;48.112;11.552;2022-10-31T09:42:08;41.50;;;38.30;;
68812;SDS011;55808;48.112;11.552;2022-10-31T09:47:52;40.87;;;38.00;;
68812;SDS011;55808;48.112;11.552;2022-10-31T09:50:25;38.80;;;36.10;;
68812;SDS011;55808;48.112;11.552;2022-10-31T09:52:57;41.03;;;37.67;;
68812;SDS011;55808;48.112;11.552;2022-10-31T09:55:31;44.00;;;38.60;;
68812;SDS011;55808;48.112;11.552;2022-10-31T09:58:05;38.93;;;36.13;;
68812;SDS011;55808;48.112;11.552;2022-10-31T10:00:38;39.50;;;37.07;;
68812;SDS011;55808;48.112;11.552;2022-10-31T10:13:22;41.80;;;38.90;;
68812;SDS011;55808;48.112;11.552;2022-10-31T10:27:24;44.17;;;40.87;;
68812;SDS011;55808;48.112;11.552;2022-10-31T10:29:57;44.17;;;40.73;;
68812;SDS011;55808;48.112;11.552;2022-10-31T10:32:24;44.27;;;41.03;;
68812;SDS011;55808;48.112;11.552;2022-10-31T10:35:07;42.73;;;40.13;;
68812;SDS011;55808;48.112;11.552;2022-10-31T10:37:36;43.27;;;40.23;;
68812;SDS011;55808;48.112;11.552;2022-10-31T10:40:11;43.40;;;40.47;;
68812;SDS011;55808;48.112;11.552;2022-10-31T10:42:43;44.10;;;40.73;;
68812;SDS011;55808;48.112;11.552;2022-10-31T10:45:39;44.80;;;41.60;;
68812;SDS011;55808;48.112;11.552;2022-10-31T10:48:33;46.93;;;42.90;;
68812;SDS011;55808;48.112;11.552;2022-10-31T10:51:17;44.70;;;41.27;;
68812;SDS011;55808;48.112;11.552;2022-10-31T10:53:50;44.80;;;41.77;;
68812;SDS011;55808;48.112;11.552;2022-10-31T10:59:11;48.70;;;44.10;;
68812;SDS011;55808;48.112;11.552;2022-10-31T11:01:41;46.73;;;42.60;;
68812;SDS011;55808;48.112;11.552;2022-10-31T11:04:30;46.27;;;42.47;;
68812;SDS011;55808;48.112;11.552;2022-10-31T11:07:01;48.23;;;43.90;;
68812;SDS011;55808;48.112;11.552;2022-10-31T11:09:29;46.37;;;42.67;;
68812;SDS011;55808;48.112;11.552;2022-10-31T11:11:57;48.17;;;43.90;;
68812;SDS011;55808;48.112;11.552;2022-10-31T11:14:24;49.07;;;44.53;;
68812;SDS011;55808;48.112;11.552;2022-10-31T11:16:53;44.70;;;41.80;;
68812;SDS011;55808;48.112;11.552;2022-10-31T11:19:33;46.57;;;43.60;;
68812;SDS011;55808;48.112;11.552;2022-10-31T11:22:06;47.00;;;44.07;;
68812;SDS011;55808;48.112;11.552;2022-10-31T11:24:36;49.77;;;46.13;;
68812;SDS011;55808;48.112;11.552;2022-10-31T11:27:20;48.97;;;45.70;;
68812;SDS011;55808;48.112;11.552;2022-10-31T11:29:47;50.90;;;47.30;;
68812;SDS011;55808;48.112;11.552;2022-10-31T11:35:12;50.63;;;47.63;;
68812;SDS011;55808;48.112;11.552;2022-10-31T11:37:43;52.90;;;50.07;;
68812;SDS011;55808;48.112;11.552;2022-10-31T11:40:20;56.10;;;52.07;;
68812;SDS011;55808;48.112;11.552;2022-10-31T11:42:52;54.17;;;50.60;;
68812;SDS011;55808;48.112;11.552;2022-10-31T11:47:55;55.40;;;51.83;;
68812;SDS011;55808;48.112;11.552;2022-10-31T11:50:25;52.00;;;49.20;;
68812;SDS011;55808;48.112;11.552;2022-10-31T11:52:54;54.47;;;50.27;;
68812;SDS011;55808;48.112;11.552;2022-10-31T11:55:31;55.57;;;51.20;;
68812;SDS011;55808;48.112;11.552;2022-10-31T11:57:59;55.47;;;52.00;;
68812;SDS011;55808;48.112;11.552;2022-10-31T12:00:32;59.13;;;54.03;;
68812;SDS011;55808;48.112;11.552;2022-10-31T12:03:06;58.60;;;53.60;;
68812;SDS011;55808;48.112;11.552;2022-10-31T12:05:55;56.17;;;52.03;;
68812;SDS011;55808;48.112;11.552;2022-10-31T12:08:38;54.90;;;51.70;;
68812;SDS011;55808;48.112;11.552;2022-10-31T12:13:37;57.33;;;52.20;;
68812;SDS011;55808;48.112;11.552;2022-10-31T12:19:23;51.70;;;48.87;;
68812;SDS011;55808;48.112;11.552;2022-10-31T12:24:50;49.53;;;47.07;;
68812;SDS011;55808;48.112;11.552;2022-10-31T12:36:06;49.10;;;45.87;;
68812;SDS011;55808;48.112;11.552;2022-10-31T12:38:37;47.90;;;45.17;;
68812;SDS011;55808;48.112;11.552;2022-10-31T12:57:47;54.57;;;50.60;;
68812;SDS011;55808;48.112;11.552;2022-10-31T13:00:18;52.10;;;48.00;;
68812;SDS011;55808;48.112;11.552;2022-10-31T13:02:51;52.37;;;48.77;;
68812;SDS011;55808;48.112;11.552;2022-10-31T13:07:55;52.43;;;48.90;;
68812;SDS011;55808;48.112;11.552;2022-10-31T13:10:31;56.03;;;51.23;;
68812;SDS011;55808;48.112;11.552;2022-10-31T13:13:16;51.40;;;48.20;;
68812;SDS011;55808;48.112;11.552;2022-10-31T13:15:54;52.23;;;49.03;;
68812;SDS011;55808;48.112;11.552;2022-10-31T13:21:21;53.80;;;49.13;;
68812;SDS011;55808;48.112;11.552;2022-10-31T13:23:50;50.63;;;47.47;;
68812;SDS011;55808;48.112;11.552;2022-10-31T13:29:04;52.40;;;48.13;;
68812;SDS011;55808;48.112;11.552;2022-10-31T13:31:31;50.93;;;47.13;;
68812;SDS011;55808;48.112;11.552;2022-10-31T13:34:00;49.77;;;46.90;;
68812;SDS011;55808;48.112;11.552;2022-10-31T13:36:40;54.20;;;49.87;;
68812;SDS011;55808;48.112;11.552;2022-10-31T13:45:16;52.17;;;48.20;;
68812;SDS011;55808;48.112;11.552;2022-10-31T13:47:54;49.93;;;46.77;;
68812;SDS011;55808;48.112;11.552;2022-10-31T13:50:54;50.63;;;47.27;;
68812;SDS011;55808;48.112;11.552;2022-10-31T13:53:22;50.00;;;46.97;;
68812;SDS011;55808;48.112;11.552;2022-10-31T13:56:21;50.63;;;47.07;;
68812;SDS011;55808;48.112;11.552;2022-10-31T14:01:33;49.40;;;46.33;;
68812;SDS011;55808;48.112;11.552;2022-10-31T14:04:13;51.43;;;46.60;;
68812;SDS011;55808;48.112;11.552;2022-10-31T14:09:35;48.53;;;44.50;;
68812;SDS011;55808;48.112;11.552;2022-10-31T14:14:58;48.03;;;44.70;;
68812;SDS011;55808;48.112;11.552;2022-10-31T14:17:29;50.07;;;46.73;;
68812;SDS011;55808;48.112;11.552;2022-10-31T14:20:19;50.00;;;46.90;;
68812;SDS011;55808;48.112;11.552;2022-10-31T14:22:49;55.43;;;49.47;;
68812;SDS011;55808;48.112;11.552;2022-10-31T14:25:24;51.53;;;47.57;;
68812;SDS011;55808;48.112;11.552;2022-10-31T14:27:59;52.60;;;48.53;;
68812;SDS011;55808;48.112;11.552;2022-10-31T14:30:28;52.80;;;48.60;;
68812;SDS011;55808;48.112;11.552;2022-10-31T14:32:57;49.37;;;45.53;;
68812;SDS011;55808;48.112;11.552;2022-10-31T14:35:27;51.67;;;47.83;;
68812;SDS011;55808;48.112;11.552;2022-10-31T14:38:09;51.47;;;46.70;;
68812;SDS011;55808;48.112;11.552;2022-10-31T14:48:57;50.57;;;46.83;;
68812;SDS011;55808;48.112;11.552;2022-10-31T14:51:55;47.57;;;44.70;;
68812;SDS011;55808;48.112;11.552;2022-10-31T14:54:24;49.47;;;45.63;;
68812;SDS011;55808;48.112;11.552;2022-10-31T14:56:55;53.30;;;49.60;;
68812;SDS011;55808;48.112;11.552;2022-10-31T14:59:26;51.93;;;48.57;;
68812;SDS011;55808;48.112;11.552;2022-10-31T15:02:00;58.83;;;52.80;;
68812;SDS011;55808;48.112;11.552;2022-10-31T15:04:39;52.43;;;48.80;;
68812;SDS011;55808;48.112;11.552;2022-10-31T15:07:09;53.23;;;49.17;;
68812;SDS011;55808;48.112;11.552;2022-10-31T15:09:41;51.57;;;48.27;;
68812;SDS011;55808;48.112;11.552;2022-10-31T15:12:44;51.97;;;48.70;;
68812;SDS011;55808;48.112;11.552;2022-10-31T15:15:23;54.97;;;50.93;;
68812;SDS011;55808;48.112;11.552;2022-10-31T15:17:54;54.43;;;50.50;;
68812;SDS011;55808;48.112;11.552;2022-10-31T15:20:23;54.83;;;49.70;;
68812;SDS011;55808;48.112;11.552;2022-10-31T15:22:55;53.27;;;49.80;;
68812;SDS011;55808;48.112;11.552;2022-10-31T15:25:23;56.83;;;52.07;;
68812;SDS011;55808;48.112;11.552;2022-10-31T15:27:51;57.30;;;51.90;;
68812;SDS011;55808;48.112;11.552;2022-10-31T15:30:26;56.07;;;51.73;;
68812;SDS011;55808;48.112;11.552;2022-10-31T15:32:53;55.30;;;51.50;;
68812;SDS011;55808;48.112;11.552;2022-10-31T15:35:20;53.60;;;50.50;;
68812;SDS011;55808;48.112;11.552;2022-10-31T15:37:58;59.77;;;54.00;;
68812;SDS011;55808;48.112;11.552;2022-10-31T15:40:27;55.07;;;50.77;;
68812;SDS011;55808;48.112;11.552;2022-10-31T15:45:27;57.87;;;53.23;;
68812;SDS011;55808;48.112;11.552;2022-10-31T15:50:32;56.50;;;52.17;;
68812;SDS011;55808;48.112;11.552;2022-10-31T15:53:05;57.73;;;53.07;;
68812;SDS011;55808;48.112;11.552;2022-10-31T15:55:45;88.27;;;57.57;;
68812;SDS011;55808;48.112;11.552;2022-10-31T15:58:16;54.27;;;50.67;;
68812;SDS011;55808;48.112;11.552;2022-10-31T16:00:42;56.33;;;51.23;;
68812;SDS011;55808;48.112;11.552;2022-10-31T16:05:44;58.30;;;53.92;;
68812;SDS011;55808;48.112;11.552;2022-10-31T16:13:31;105.33;;;95.23;;
68812;SDS011;55808;48.112;11.552;2022-10-31T16:16:03;102.57;;;93.00;;
68812;SDS011;55808;48.112;11.552;2022-10-31T16:18:37;102.83;;;92.53;;
68812;SDS011;55808;48.112;11.552;2022-10-31T16:21:05;108.40;;;97.30;;
68812;SDS011;55808;48.112;11.552;2022-10-31T16:23:32;103.50;;;93.50;;
68812;SDS011;55808;48.112;11.552;2022-10-31T16:25:58;102.63;;;93.00;;
68812;SDS011;55808;48.112;11.552;2022-10-31T16:28:25;99.97;;;90.63;;
68812;SDS011;55808;48.112;11.552;2022-10-31T16:30:53;100.30;;;90.93;;
68812;SDS011;55808;48.112;11.552;2022-10-31T16:35:53;96.60;;;88.97;;
68812;SDS011;55808;48.112;11.552;2022-10-31T16:38:20;97.40;;;88.90;;
68812;SDS011;55808;48.112;11.552;2022-10-31T16:40:46;93.50;;;86.27;;